Orto / Ocaso: 06:29 / 17:32 UTC (Datos para LEAX 21-10-2018)

[fuente: ADDS]

METAR:


LEMG 210800Z 28008KT 9999 FEW018 SCT022 20/16 Q1017 NOSIG =
TAF LEMG 210500Z 2106/2206 29007KT 9999 SCT025 TX24/2113Z TN17/2106Z PROB40 TEMPO 2106/2112 4000 SHRA BKN020 SCT030TCU PROB30 TEMPO 2106/2109 3000 TSRA BKN020CB BECMG 2110/2113 17007KT BECMG 2116/2119 28007KT LEGR 210800Z 00000KT 9999 FEW080 14/13 Q1020 =
TAF LEGR 210200Z 2103/2203 VRB03KT 9999 FEW030 SCT080 TX24/2115Z TN10/2105Z PROB30 TEMPO 2103/2107 3000 BR PROB30 TEMPO 2112/2118 SHRA SCT025TCU SCT040 LEZL 210800Z 07007KT 9999 SCT040 17/16 Q1017 NOSIG =
TAF LEZL 210200Z 2103/2203 04007KT 9999 SCT035 TX22/2115Z TN14/2106Z PROB30 TEMPO 2103/2107 4000 SHRA SCT025 SCT035TCU TEMPO 2107/2118 4000 SHRA SCT030CB BKN040 PROB30 TEMPO 2107/2118 3000 TSRA SCT020 BKN030CB LEAM 210800Z 02012KT 330V060 9999 FEW030 24/16 Q1017 =
TAF LEAM 210200Z 2103/2203 36010KT 9999 FEW025 TX26/2113Z TN21/2104Z BECMG 2103/2106 06018KT PROB30 TEMPO 2107/2116 05020G30KT BECMG 2119/2122 03006KT LEBA 210800Z VRB02KT 9999 -RA OVC045 16/15 Q1019 =
TAF LEBA 210500Z 2106/2115 09007KT 9999 SCT030 TEMPO 2106/2110 4000 SHRA SCT025 SCT035TCU PROB30 TEMPO 2106/2110 3000 TSRA SCT020 BKN030CB PROB30 TEMPO 2110/2115 4000 SHRA SCT030TCU BECMG 2111/2114 25010KT LEJR 210800Z VRB01KT 9999 BKN045 BKN055 16/16 Q1017 =
TAF LEJR 210500Z 2106/2206 11004KT 9999 SCT030 TX24/2114Z TN14/2206Z PROB40 TEMPO 2107/2120 4000 SHRA SCT020 SCT030CB PROB30 TEMPO 2109/2118 3000 TSRA SCT020CB BKN030 GEML 210800Z 25006KT 170V290 9999 FEW010 21/18 Q1017 =
TAF GEML 210200Z 2103/2203 27006KT 9999 SCT012 SCT020 TX24/2114Z TN20/2106Z TEMPO 2103/2110 SCT010 BKN014 LXGB 210750Z 27002KT 9999 VCSH SCT016 BKN030 18/17 Q1016 NOSIG =
TAF LXGB 210727Z 2109/2118 11010KT 9999 BKN022 PROB30 TEMPO 2113/2118 7000 SHRA SCT012 BKN015

TAFOR:


TAF LEMG 210500Z 2106/2206 29007KT 9999 SCT025 TX24/2113Z TN17/2106Z PROB40 TEMPO 2106/2112 4000 SHRA BKN020 SCT030TCU PROB30 TEMPO 2106/2109 3000 TSRA BKN020CB BECMG 2110/2113 17007KT BECMG 2116/2119 28007KT =
TAF LEGR 210200Z 2103/2203 VRB03KT 9999 FEW030 SCT080 TX24/2115Z TN10/2105Z PROB30 TEMPO 2103/2107 3000 BR PROB30 TEMPO 2112/2118 SHRA SCT025TCU SCT040 =
TAF LEZL 210200Z 2103/2203 04007KT 9999 SCT035 TX22/2115Z TN14/2106Z PROB30 TEMPO 2103/2107 4000 SHRA SCT025 SCT035TCU TEMPO 2107/2118 4000 SHRA SCT030CB BKN040 PROB30 TEMPO 2107/2118 3000 TSRA SCT020 BKN030CB =
TAF LEAM 210200Z 2103/2203 36010KT 9999 FEW025 TX26/2113Z TN21/2104Z BECMG 2103/2106 06018KT PROB30 TEMPO 2107/2116 05020G30KT BECMG 2119/2122 03006KT =
TAF LEBA 210500Z 2106/2115 09007KT 9999 SCT030 TEMPO 2106/2110 4000 SHRA SCT025 SCT035TCU PROB30 TEMPO 2106/2110 3000 TSRA SCT020 BKN030CB PROB30 TEMPO 2110/2115 4000 SHRA SCT030TCU BECMG 2111/2114 25010KT =
TAF LEJR 210500Z 2106/2206 11004KT 9999 SCT030 TX24/2114Z TN14/2206Z PROB40 TEMPO 2107/2120 4000 SHRA SCT020 SCT030CB PROB30 TEMPO 2109/2118 3000 TSRA SCT020CB BKN030 =
TAF GEML 210200Z 2103/2203 27006KT 9999 SCT012 SCT020 TX24/2114Z TN20/2106Z TEMPO 2103/2110 SCT010 BKN014 =
TAF LXGB 210727Z 2109/2118 11010KT 9999 BKN022 PROB30 TEMPO 2113/2118 7000 SHRA SCT012 BKN015 =

Recuerde que, aunque regularmente actualizada, la información meteorológica aquí presentada no debe ser utilizada para la planificación de vuelos. Si lo desea, puede consultar la información meteorológica adecuada, tanto de aeródromos como en ruta, por las vías oficialmente establecidas en la legislación -> AQUí